createdAt,value
2019-01-25T00:01:26.653Z,86.53
2019-01-25T00:06:29.978Z,84.87
2019-01-25T00:11:33.709Z,85.53
2019-01-25T00:16:37.439Z,85.53
2019-01-25T00:21:40.861Z,86.93
2019-01-25T00:26:44.296Z,84.20
2019-01-25T00:31:47.717Z,78.13
2019-01-25T00:36:50.811Z,81.73
2019-01-25T00:41:53.906Z,85.83
2019-01-25T00:46:57.125Z,88.17
2019-01-25T00:52:00.802Z,84.40
2019-01-25T00:57:04.051Z,81.30
2019-01-25T01:02:07.772Z,84.67
2019-01-25T01:07:10.849Z,84.40
2019-01-25T01:12:14.268Z,75.37
2019-01-25T01:17:17.700Z,80.30
2019-01-25T01:22:21.212Z,80.90
2019-01-25T01:27:24.636Z,89.60
2019-01-25T01:32:27.727Z,78.63
2019-01-25T01:37:31.451Z,83.87
2019-01-25T01:42:34.895Z,83.47
2019-01-25T01:47:38.582Z,90.67
2019-01-25T01:52:41.693Z,86.00
2019-01-25T01:57:45.133Z,84.47
2019-01-25T02:02:48.629Z,83.40
2019-01-25T02:07:52.454Z,80.73
2019-01-25T02:12:55.946Z,84.07
2019-01-25T02:17:59.041Z,84.13
2019-01-25T02:23:02.127Z,86.73
2019-01-25T02:28:05.463Z,82.77
2019-01-25T02:33:08.581Z,83.83
2019-01-25T02:38:12.346Z,83.30
2019-01-25T02:43:15.782Z,83.62
2019-01-25T02:48:19.468Z,80.87
2019-01-25T02:53:22.893Z,78.50
2019-01-25T02:58:25.973Z,87.30
2019-01-25T03:03:29.077Z,83.50
2019-01-25T03:08:32.435Z,84.23
2019-01-25T03:13:36.140Z,79.10
2019-01-25T03:18:39.590Z,79.67
2019-01-25T03:23:43.009Z,82.63
2019-01-25T03:28:46.439Z,77.20
2019-01-25T03:33:49.542Z,84.50
2019-01-25T03:38:52.671Z,78.33
2019-01-25T03:43:56.090Z,80.20
2019-01-25T03:48:59.825Z,82.30
2019-01-25T03:54:03.290Z,82.17
2019-01-25T03:59:06.780Z,81.33
2019-01-25T04:04:10.209Z,83.00
2019-01-25T04:09:13.632Z,83.07
2019-01-25T04:14:16.711Z,80.03
2019-01-25T04:19:20.135Z,84.20
2019-01-25T04:24:23.538Z,77.97
2019-01-25T04:29:26.967Z,86.37
2019-01-25T04:34:30.384Z,85.77
2019-01-25T04:39:34.108Z,81.80
2019-01-25T04:44:37.522Z,82.33
2019-01-25T04:49:40.956Z,82.90
2019-01-25T04:54:46.974Z,81.73
2019-01-25T04:59:50.400Z,80.37
2019-01-25T05:04:53.496Z,85.13
2019-01-25T05:09:56.827Z,80.73
2019-01-25T05:15:00.253Z,86.43
2019-01-25T05:20:04.852Z,87.53
2019-01-25T05:25:08.031Z,83.77
2019-01-25T05:30:13.336Z,92.03
2019-01-25T05:35:16.489Z,82.57
2019-01-25T05:40:22.458Z,80.73
2019-01-25T05:45:25.894Z,82.07
2019-01-25T05:50:29.322Z,84.60
2019-01-25T05:55:32.419Z,85.65
2019-01-25T06:00:37.480Z,87.60
2019-01-25T06:05:41.047Z,83.70
2019-01-25T06:10:44.153Z,83.47
2019-01-25T06:15:47.569Z,88.23
2019-01-25T06:20:54.625Z,88.97
2019-01-25T06:25:58.341Z,78.80
2019-01-25T06:31:01.662Z,87.87
2019-01-25T06:36:07.076Z,88.00
2019-01-25T06:41:10.503Z,86.37
2019-01-25T06:46:14.198Z,93.80
2019-01-25T06:51:17.630Z,91.43
2019-01-25T06:56:21.316Z,90.97
2019-01-25T07:01:26.047Z,89.70
2019-01-25T07:06:29.134Z,83.83
2019-01-25T07:11:32.232Z,93.40
2019-01-25T07:16:35.631Z,93.00
2019-01-25T07:21:39.343Z,91.73
2019-01-25T07:26:42.439Z,91.30
2019-01-25T07:31:46.395Z,91.53
2019-01-25T07:36:52.017Z,96.60
2019-01-25T07:41:59.609Z,92.33
2019-01-25T07:47:02.351Z,92.33
2019-01-25T07:52:06.162Z,92.17
2019-01-25T07:57:09.313Z,92.53
2019-01-25T08:02:13.047Z,94.33
2019-01-25T08:07:16.159Z,90.47
2019-01-25T08:12:19.292Z,96.60
2019-01-25T08:17:22.660Z,104.67
2019-01-25T08:22:26.142Z,98.60
2019-01-25T08:27:29.561Z,93.40
2019-01-25T08:32:32.633Z,95.53
2019-01-25T08:37:36.436Z,95.90
2019-01-25T08:42:39.909Z,93.87
2019-01-25T08:47:43.262Z,104.53
2019-01-25T08:52:47.022Z,95.43
2019-01-25T08:57:51.081Z,90.83
2019-01-25T09:02:54.486Z,89.27
2019-01-25T09:07:58.152Z,90.37
2019-01-25T09:13:01.233Z,92.33
2019-01-25T09:18:04.589Z,86.93
2019-01-25T09:23:08.009Z,93.50
2019-01-25T09:28:11.122Z,95.97
2019-01-25T09:33:14.468Z,95.27
2019-01-25T09:38:17.552Z,94.33
2019-01-25T09:43:20.642Z,95.07
2019-01-25T09:48:24.302Z,97.60
2019-01-25T09:53:27.394Z,102.90
2019-01-25T09:58:30.818Z,99.03
2019-01-25T10:03:34.232Z,90.47
2019-01-25T10:08:37.319Z,98.07
2019-01-25T10:13:40.409Z,91.40
2019-01-25T10:18:43.759Z,98.17
2019-01-25T10:23:46.863Z,94.70
2019-01-25T10:28:50.271Z,96.07
2019-01-25T10:33:53.598Z,100.33
2019-01-25T10:38:57.016Z,97.90
2019-01-25T10:44:00.097Z,100.73
2019-01-25T10:49:03.185Z,98.83
2019-01-25T10:54:06.350Z,88.40
2019-01-25T10:59:09.774Z,82.73
2019-01-25T11:04:13.202Z,84.30
2019-01-25T11:09:16.292Z,93.50
2019-01-25T11:14:19.699Z,84.10
2019-01-25T11:19:22.797Z,83.93
2019-01-25T11:24:26.233Z,81.30
2019-01-25T11:29:29.313Z,76.97
2019-01-25T11:34:33.170Z,74.30
2019-01-25T11:39:36.414Z,69.20
2019-01-25T11:44:40.157Z,62.53
2019-01-25T11:49:43.590Z,74.47
2019-01-25T11:54:47.005Z,70.47
2019-01-25T11:59:50.423Z,62.83
2019-01-25T12:04:53.841Z,73.10
2019-01-25T12:09:57.255Z,70.47
2019-01-25T12:15:00.674Z,69.73
2019-01-25T12:20:05.618Z,68.30
2019-01-25T12:25:10.126Z,67.77
2019-01-25T12:30:19.638Z,72.67
2019-01-25T12:35:23.336Z,73.23
2019-01-25T12:40:26.434Z,66.43
2019-01-25T12:45:31.089Z,57.43
2019-01-25T12:50:41.649Z,59.03
2019-01-25T12:55:45.078Z,57.80
2019-01-25T13:00:50.055Z,55.07
2019-01-25T13:05:53.471Z,49.20
2019-01-25T13:10:56.602Z,50.27
2019-01-25T13:16:00.009Z,46.53
2019-01-25T13:21:03.586Z,42.67
2019-01-25T13:26:07.002Z,43.87
2019-01-25T13:31:10.475Z,39.77
2019-01-25T13:36:13.836Z,40.37
2019-01-25T13:41:17.549Z,35.77
2019-01-25T13:46:21.266Z,26.27
2019-01-25T13:51:24.710Z,25.77
2019-01-25T13:56:28.194Z,22.60
2019-01-25T14:01:34.650Z,22.30
2019-01-25T14:06:36.727Z,17.93
2019-01-25T14:11:39.851Z,28.87
2019-01-25T14:16:43.341Z,14.07
2019-01-25T14:21:46.821Z,12.40
2019-01-25T14:26:49.958Z,13.77
2019-01-25T14:31:53.431Z,10.93
2019-01-25T14:36:56.579Z,10.17
2019-01-25T14:42:00.063Z,11.53
2019-01-25T14:47:03.239Z,10.70
2019-01-25T14:52:06.362Z,7.40
2019-01-25T14:57:09.489Z,7.50
2019-01-25T15:02:13.001Z,7.93
2019-01-25T15:07:16.470Z,7.60
2019-01-25T15:12:19.938Z,8.70
2019-01-25T15:17:23.397Z,9.87
2019-01-25T15:22:26.868Z,9.17
2019-01-25T15:27:30.000Z,8.33
2019-01-25T15:32:33.479Z,8.00
2019-01-25T15:37:36.971Z,8.67
2019-01-25T15:42:40.145Z,10.10
2019-01-25T15:47:43.636Z,8.30
2019-01-25T15:52:52.005Z,9.90
2019-01-25T15:57:55.647Z,8.60
2019-01-25T16:02:58.812Z,9.63
2019-01-25T16:08:04.052Z,9.77
2019-01-25T16:13:07.217Z,11.83
2019-01-25T16:18:10.680Z,10.23
2019-01-25T16:23:13.845Z,11.27
2019-01-25T16:28:17.255Z,12.00
2019-01-25T16:33:20.433Z,10.63
2019-01-25T16:38:23.934Z,12.13
2019-01-25T16:43:27.439Z,11.90
2019-01-25T16:48:31.258Z,13.00
2019-01-25T16:53:34.767Z,12.43
2019-01-25T16:58:38.199Z,13.73
2019-01-25T17:03:41.418Z,12.77
2019-01-25T17:08:45.185Z,16.13
2019-01-25T17:13:48.693Z,14.20
2019-01-25T17:18:52.126Z,14.17
2019-01-25T17:23:55.291Z,14.43
2019-01-25T17:28:58.799Z,17.40
2019-01-25T17:34:02.322Z,19.20
2019-01-25T17:39:07.034Z,18.77
2019-01-25T17:44:10.476Z,20.00
2019-01-25T17:49:13.663Z,21.80
2019-01-25T17:54:16.849Z,20.70
2019-01-25T17:59:21.253Z,20.73
2019-01-25T18:04:24.461Z,21.23
2019-01-25T18:09:27.988Z,20.87
2019-01-25T18:14:31.501Z,24.63
2019-01-25T18:19:34.699Z,23.43
2019-01-25T18:24:37.901Z,26.97
2019-01-25T18:29:41.550Z,26.13
2019-01-25T18:34:45.034Z,27.17
2019-01-25T18:39:48.219Z,24.07
2019-01-25T18:44:56.699Z,24.20
2019-01-25T18:49:56.714Z,24.63
2019-01-25T18:54:59.906Z,23.27
2019-01-25T19:00:03.604Z,24.30
2019-01-25T19:05:10.006Z,24.70
2019-01-25T19:10:17.776Z,23.33
2019-01-25T19:15:22.734Z,22.57
2019-01-25T19:20:25.910Z,21.80
2019-01-25T19:25:29.118Z,24.87
2019-01-25T19:30:38.165Z,27.13
2019-01-25T19:35:41.458Z,25.53
2019-01-25T19:40:44.886Z,26.03
2019-01-25T19:45:48.762Z,24.83
2019-01-25T19:50:52.234Z,25.70
2019-01-25T19:55:55.807Z,25.10
2019-01-25T20:00:59.262Z,25.33
2019-01-25T20:06:02.561Z,27.53
2019-01-25T20:11:06.082Z,23.23
2019-01-25T20:16:09.928Z,24.07
2019-01-25T20:21:13.167Z,24.57
2019-01-25T20:26:16.643Z,23.87
2019-01-25T20:31:20.173Z,20.10
2019-01-25T20:36:23.366Z,25.97
2019-01-25T20:41:26.553Z,23.87
2019-01-25T20:46:31.711Z,23.93
2019-01-25T20:51:34.882Z,22.93
2019-01-25T20:56:38.665Z,19.67
2019-01-25T21:01:41.845Z,24.23
2019-01-25T21:06:45.031Z,20.70
2019-01-25T21:11:48.516Z,20.40
2019-01-25T21:16:52.977Z,22.93
2019-01-25T21:21:56.181Z,20.77
2019-01-25T21:26:59.354Z,20.53
2019-01-25T21:32:02.878Z,19.97
2019-01-25T21:37:06.121Z,17.27
2019-01-25T21:42:09.640Z,19.63
2019-01-25T21:47:13.521Z,17.85
2019-01-25T21:52:17.004Z,19.77
2019-01-25T21:57:20.173Z,17.17
2019-01-25T22:02:23.655Z,15.50
2019-01-25T22:07:26.781Z,18.20
2019-01-25T22:12:30.268Z,13.60
2019-01-25T22:17:33.742Z,14.53
2019-01-25T22:22:37.205Z,13.60
2019-01-25T22:27:40.297Z,15.33
2019-01-25T22:32:43.484Z,14.73
2019-01-25T22:37:47.445Z,12.77
2019-01-25T22:42:51.185Z,10.33
2019-01-25T22:47:55.626Z,11.60
2019-01-25T22:52:59.045Z,10.13
2019-01-25T22:58:02.483Z,10.17
2019-01-25T23:03:05.574Z,10.00
2019-01-25T23:08:08.660Z,11.37
2019-01-25T23:13:11.740Z,9.53
2019-01-25T23:18:15.509Z,9.30
2019-01-25T23:23:19.238Z,7.70
2019-01-25T23:28:22.662Z,9.40
2019-01-25T23:33:26.100Z,9.77
2019-01-25T23:38:29.869Z,8.87
2019-01-25T23:43:33.300Z,8.10
2019-01-25T23:48:36.624Z,7.60
2019-01-25T23:53:39.701Z,8.40
2019-01-25T23:58:43.051Z,7.83
